createdAt,value
2017-09-26T00:00:05.479Z,1014.83
2017-09-26T00:00:46.125Z,1014.83
2017-09-26T00:01:26.652Z,1014.84
2017-09-26T00:02:07.180Z,1014.8
2017-09-26T00:02:47.720Z,1014.8
2017-09-26T00:03:28.257Z,1014.81
2017-09-26T00:04:08.788Z,1014.79
2017-09-26T00:04:49.334Z,1014.79
2017-09-26T00:05:29.872Z,1014.8
2017-09-26T00:06:10.413Z,1014.81
2017-09-26T00:06:50.969Z,1014.8
2017-09-26T00:07:31.498Z,1014.76
2017-09-26T00:08:12.028Z,1014.79
2017-09-26T00:08:52.565Z,1014.76
2017-09-26T00:09:33.100Z,1014.77
2017-09-26T00:10:13.664Z,1014.76
2017-09-26T00:10:54.266Z,1014.8
2017-09-26T00:11:34.784Z,1014.8
2017-09-26T00:12:15.520Z,1014.78
2017-09-26T00:12:56.046Z,1014.81
2017-09-26T00:13:36.595Z,1014.81
2017-09-26T00:14:17.207Z,1014.8
2017-09-26T00:14:57.739Z,1014.81
2017-09-26T00:15:38.268Z,1014.78
2017-09-26T00:16:18.798Z,1014.81
2017-09-26T00:16:59.329Z,1014.78
2017-09-26T00:17:39.864Z,1014.78
2017-09-26T00:18:20.385Z,1014.77
2017-09-26T00:19:00.922Z,1014.79
2017-09-26T00:19:41.446Z,1014.77
2017-09-26T00:20:21.970Z,1014.74
2017-09-26T00:21:02.556Z,1014.76
2017-09-26T00:21:43.071Z,1014.77
2017-09-26T00:22:23.613Z,1014.74
2017-09-26T00:23:04.139Z,1014.74
2017-09-26T00:23:44.679Z,1014.71
2017-09-26T00:24:25.227Z,1014.7
2017-09-26T00:25:05.758Z,1014.72
2017-09-26T00:25:46.308Z,1014.72
2017-09-26T00:26:26.821Z,1014.76
2017-09-26T00:27:07.360Z,1014.73
2017-09-26T00:27:47.899Z,1014.7
2017-09-26T00:28:28.443Z,1014.71
2017-09-26T00:29:08.972Z,1014.72
2017-09-26T00:29:49.518Z,1014.71
2017-09-26T00:30:30.057Z,1014.74
2017-09-26T00:31:10.584Z,1014.75
2017-09-26T00:31:51.105Z,1014.71
2017-09-26T00:32:31.635Z,1014.73
2017-09-26T00:33:12.171Z,1014.75
2017-09-26T00:33:52.702Z,1014.74
2017-09-26T00:34:33.244Z,1014.74
2017-09-26T00:35:13.761Z,1014.72
2017-09-26T00:35:54.293Z,1014.73
2017-09-26T00:36:34.839Z,1014.73
2017-09-26T00:37:15.373Z,1014.73
2017-09-26T00:37:55.914Z,1014.72
2017-09-26T00:38:36.491Z,1014.72
2017-09-26T00:39:17.019Z,1014.72
2017-09-26T00:39:57.639Z,1014.72
2017-09-26T00:40:38.185Z,1014.72
2017-09-26T00:41:18.693Z,1014.74
2017-09-26T00:41:59.230Z,1014.67
2017-09-26T00:42:39.742Z,1014.65
2017-09-26T00:43:20.269Z,1014.66
2017-09-26T00:44:00.796Z,1014.65
2017-09-26T00:44:41.327Z,1014.65
2017-09-26T00:45:21.899Z,1014.63
2017-09-26T00:46:02.458Z,1014.68
2017-09-26T00:46:42.996Z,1014.66
2017-09-26T00:47:23.534Z,1014.64
2017-09-26T00:48:04.069Z,1014.65
2017-09-26T00:48:44.605Z,1014.66
2017-09-26T00:49:25.124Z,1014.64
2017-09-26T00:50:05.654Z,1014.64
2017-09-26T00:50:46.225Z,1014.65
2017-09-26T00:51:26.757Z,1014.66
2017-09-26T00:52:07.291Z,1014.64
2017-09-26T00:52:48.551Z,1014.63
2017-09-26T00:53:29.087Z,1014.63
2017-09-26T00:54:09.892Z,1014.64
2017-09-26T00:54:50.405Z,1014.67
2017-09-26T00:55:30.919Z,1014.64
2017-09-26T00:56:11.450Z,1014.65
2017-09-26T00:56:51.976Z,1014.63
2017-09-26T00:57:32.635Z,1014.62
2017-09-26T00:58:13.127Z,1014.63
2017-09-26T00:58:53.673Z,1014.62
2017-09-26T00:59:34.208Z,1014.64
2017-09-26T01:00:14.751Z,1014.65
2017-09-26T01:00:55.295Z,1014.65
2017-09-26T01:01:35.831Z,1014.65
2017-09-26T01:02:16.361Z,1014.62
2017-09-26T01:02:56.887Z,1014.65
2017-09-26T01:03:37.462Z,1014.68
2017-09-26T01:04:17.974Z,1014.65
2017-09-26T01:04:58.521Z,1014.63
2017-09-26T01:05:39.040Z,1014.65
2017-09-26T01:06:19.568Z,1014.66
2017-09-26T01:07:00.113Z,1014.65
2017-09-26T01:07:40.633Z,1014.67
2017-09-26T01:08:21.159Z,1014.68
2017-09-26T01:09:01.700Z,1014.66
2017-09-26T01:09:42.245Z,1014.69
2017-09-26T01:10:22.771Z,1014.67
2017-09-26T01:11:03.318Z,1014.7
2017-09-26T01:11:43.832Z,1014.69
2017-09-26T01:12:24.434Z,1014.68
2017-09-26T01:13:04.939Z,1014.7
2017-09-26T01:13:45.468Z,1014.71
2017-09-26T01:14:26.004Z,1014.7
2017-09-26T01:15:06.546Z,1014.71
2017-09-26T01:15:47.081Z,1014.7
2017-09-26T01:16:27.621Z,1014.67
2017-09-26T01:17:08.146Z,1014.68
2017-09-26T01:17:48.683Z,1014.67
2017-09-26T01:18:29.222Z,1014.69
2017-09-26T01:19:09.754Z,1014.68
2017-09-26T01:19:50.302Z,1014.66
2017-09-26T01:20:30.828Z,1014.65
2017-09-26T01:21:11.356Z,1014.65
2017-09-26T01:21:51.896Z,1014.64
2017-09-26T01:22:32.413Z,1014.65
2017-09-26T01:23:12.948Z,1014.66
2017-09-26T01:23:53.468Z,1014.67
2017-09-26T01:24:33.989Z,1014.64
2017-09-26T01:25:14.538Z,1014.65
2017-09-26T01:25:55.051Z,1014.66
2017-09-26T01:26:35.579Z,1014.65
2017-09-26T01:27:16.106Z,1014.65
2017-09-26T01:27:56.750Z,1014.65
2017-09-26T01:28:37.259Z,1014.64
2017-09-26T01:29:17.790Z,1014.64
2017-09-26T01:29:58.301Z,1014.62
2017-09-26T01:30:38.835Z,1014.62
2017-09-26T01:31:19.359Z,1014.65
2017-09-26T01:31:59.896Z,1014.63
2017-09-26T01:32:40.433Z,1014.64
2017-09-26T01:33:20.967Z,1014.66
2017-09-26T01:34:01.471Z,1014.63
2017-09-26T01:34:41.995Z,1014.65
2017-09-26T01:35:22.501Z,1014.67
2017-09-26T01:36:03.123Z,1014.66
2017-09-26T01:36:43.663Z,1014.66
2017-09-26T01:37:24.204Z,1014.66
2017-09-26T01:38:04.737Z,1014.66
2017-09-26T01:38:45.249Z,1014.65
2017-09-26T01:39:25.785Z,1014.69
2017-09-26T01:40:06.313Z,1014.65
2017-09-26T01:40:46.839Z,1014.69
2017-09-26T01:41:27.366Z,1014.69
2017-09-26T01:42:07.905Z,1014.67
2017-09-26T01:42:48.450Z,1014.67
2017-09-26T01:43:28.967Z,1014.67
2017-09-26T01:44:09.503Z,1014.68
2017-09-26T01:44:50.043Z,1014.62
2017-09-26T01:45:30.582Z,1014.65
2017-09-26T01:46:11.115Z,1014.63
2017-09-26T01:46:51.638Z,1014.63
2017-09-26T01:47:32.179Z,1014.63
2017-09-26T01:48:12.797Z,1014.63
2017-09-26T01:48:53.331Z,1014.62
2017-09-26T01:49:33.858Z,1014.62
2017-09-26T01:50:14.395Z,1014.6
2017-09-26T01:50:54.927Z,1014.6
2017-09-26T01:51:35.451Z,1014.6
2017-09-26T01:52:15.970Z,1014.61
2017-09-26T01:52:56.510Z,1014.61
2017-09-26T01:53:37.043Z,1014.6
2017-09-26T01:54:17.584Z,1014.62
2017-09-26T01:54:58.122Z,1014.62
2017-09-26T01:55:38.671Z,1014.59
2017-09-26T01:56:19.168Z,1014.59
2017-09-26T01:56:59.702Z,1014.59
2017-09-26T01:57:40.249Z,1014.62
2017-09-26T01:58:20.779Z,1014.61
2017-09-26T01:59:01.304Z,1014.61
2017-09-26T01:59:41.844Z,1014.62
2017-09-26T02:00:22.373Z,1014.63
2017-09-26T02:01:02.905Z,1014.62
2017-09-26T02:01:43.476Z,1014.63
2017-09-26T02:02:24.008Z,1014.6
2017-09-26T02:03:04.530Z,1014.61
2017-09-26T02:03:45.070Z,1014.64
2017-09-26T02:04:25.610Z,1014.6
2017-09-26T02:05:06.132Z,1014.64
2017-09-26T02:05:46.696Z,1014.64
2017-09-26T02:06:27.197Z,1014.63
2017-09-26T02:07:07.735Z,1014.63
2017-09-26T02:07:48.272Z,1014.62
2017-09-26T02:08:28.794Z,1014.64
2017-09-26T02:09:09.313Z,1014.61
2017-09-26T02:09:49.835Z,1014.64
2017-09-26T02:10:30.364Z,1014.63
2017-09-26T02:11:10.902Z,1014.65
2017-09-26T02:11:51.431Z,1014.65
2017-09-26T02:12:31.974Z,1014.69
2017-09-26T02:13:12.496Z,1014.65
2017-09-26T02:13:53.022Z,1014.65
2017-09-26T02:14:33.533Z,1014.63
2017-09-26T02:15:14.064Z,1014.65
2017-09-26T02:15:54.592Z,1014.62
2017-09-26T02:16:35.138Z,1014.64
2017-09-26T02:17:15.669Z,1014.63
2017-09-26T02:17:56.192Z,1014.62
2017-09-26T02:18:36.727Z,1014.59
2017-09-26T02:19:17.264Z,1014.6
2017-09-26T02:19:57.800Z,1014.63
2017-09-26T02:20:38.324Z,1014.63
2017-09-26T02:21:18.848Z,1014.62
2017-09-26T02:21:59.410Z,1014.64
2017-09-26T02:22:39.938Z,1014.66
2017-09-26T02:23:20.468Z,1014.62
2017-09-26T02:24:00.973Z,1014.62
2017-09-26T02:24:41.490Z,1014.65
2017-09-26T02:25:22.019Z,1014.66
2017-09-26T02:26:02.551Z,1014.63
2017-09-26T02:26:43.074Z,1014.63
2017-09-26T02:27:23.593Z,1014.63
2017-09-26T02:28:04.116Z,1014.65
2017-09-26T02:28:44.646Z,1014.63
2017-09-26T02:29:25.175Z,1014.58
2017-09-26T02:30:05.698Z,1014.59
2017-09-26T02:30:46.245Z,1014.56
2017-09-26T02:31:26.754Z,1014.55
2017-09-26T02:32:07.262Z,1014.53
2017-09-26T02:32:47.782Z,1014.53
2017-09-26T02:33:28.312Z,1014.51
2017-09-26T02:34:08.843Z,1014.49
2017-09-26T02:34:49.345Z,1014.49
2017-09-26T02:35:29.871Z,1014.51
2017-09-26T02:36:10.403Z,1014.52
2017-09-26T02:36:50.935Z,1014.48
2017-09-26T02:37:31.468Z,1014.48
2017-09-26T02:38:11.998Z,1014.48
2017-09-26T02:38:52.534Z,1014.47
2017-09-26T02:39:33.065Z,1014.47
2017-09-26T02:40:13.640Z,1014.46
2017-09-26T02:40:54.157Z,1014.43
2017-09-26T02:41:34.684Z,1014.45
2017-09-26T02:42:15.201Z,1014.44
2017-09-26T02:42:55.731Z,1014.45
2017-09-26T02:43:36.263Z,1014.43
2017-09-26T02:44:16.794Z,1014.45
2017-09-26T02:44:57.330Z,1014.43
2017-09-26T02:45:37.852Z,1014.46
2017-09-26T02:46:18.390Z,1014.48
2017-09-26T02:46:58.905Z,1014.44
2017-09-26T02:47:39.446Z,1014.45
2017-09-26T02:48:19.974Z,1014.5
2017-09-26T02:49:00.540Z,1014.44
2017-09-26T02:49:41.030Z,1014.46
2017-09-26T02:50:21.637Z,1014.48
2017-09-26T02:51:02.161Z,1014.48
2017-09-26T02:51:42.690Z,1014.5
2017-09-26T02:52:23.220Z,1014.49
2017-09-26T02:53:03.760Z,1014.51
2017-09-26T02:53:44.296Z,1014.5
2017-09-26T02:54:24.829Z,1014.54
2017-09-26T02:55:05.338Z,1014.53
2017-09-26T02:55:45.970Z,1014.52
2017-09-26T02:56:26.502Z,1014.52
2017-09-26T02:57:07.013Z,1014.51
2017-09-26T02:57:47.558Z,1014.51
2017-09-26T02:58:28.068Z,1014.52
2017-09-26T02:59:08.605Z,1014.52
2017-09-26T02:59:49.136Z,1014.5
2017-09-26T03:00:29.662Z,1014.5
2017-09-26T03:01:10.180Z,1014.5
2017-09-26T03:01:50.717Z,1014.53
2017-09-26T03:02:31.256Z,1014.49
2017-09-26T03:03:11.798Z,1014.52
2017-09-26T03:03:52.311Z,1014.48
2017-09-26T03:04:32.843Z,1014.48
2017-09-26T03:05:13.378Z,1014.47
2017-09-26T03:05:53.917Z,1014.5
2017-09-26T03:06:34.456Z,1014.5
2017-09-26T03:07:14.999Z,1014.49
2017-09-26T03:07:55.539Z,1014.48
2017-09-26T03:08:36.064Z,1014.49
2017-09-26T03:09:16.596Z,1014.48
2017-09-26T03:09:57.145Z,1014.53
2017-09-26T03:10:37.665Z,1014.52
2017-09-26T03:11:18.197Z,1014.51
2017-09-26T03:11:58.729Z,1014.48
2017-09-26T03:12:39.261Z,1014.51
2017-09-26T03:13:19.791Z,1014.53
2017-09-26T03:14:00.347Z,1014.51
2017-09-26T03:14:40.889Z,1014.52
2017-09-26T03:15:21.417Z,1014.52
2017-09-26T03:16:01.927Z,1014.49
2017-09-26T03:16:42.450Z,1014.53
2017-09-26T03:17:22.979Z,1014.52
2017-09-26T03:18:03.525Z,1014.55
2017-09-26T03:18:44.021Z,1014.56
2017-09-26T03:19:24.555Z,1014.53
2017-09-26T03:20:05.084Z,1014.56
2017-09-26T03:20:45.614Z,1014.58
2017-09-26T03:21:26.150Z,1014.56
2017-09-26T03:22:06.713Z,1014.56
2017-09-26T03:22:47.582Z,1014.56
2017-09-26T03:23:28.688Z,1014.56
2017-09-26T03:24:09.196Z,1014.57
2017-09-26T03:24:49.689Z,1014.59
2017-09-26T03:25:30.212Z,1014.6
2017-09-26T03:26:10.690Z,1014.57
2017-09-26T03:26:51.778Z,1014.58
2017-09-26T03:27:32.964Z,1014.59
2017-09-26T03:28:13.770Z,1014.56
2017-09-26T03:28:54.280Z,1014.59
2017-09-26T03:29:34.777Z,1014.59
2017-09-26T03:30:15.314Z,1014.6
2017-09-26T03:30:55.840Z,1014.59
2017-09-26T03:31:36.359Z,1014.6
2017-09-26T03:32:16.849Z,1014.6
2017-09-26T03:32:57.398Z,1014.62
2017-09-26T03:33:37.915Z,1014.58
2017-09-26T03:34:18.435Z,1014.59
2017-09-26T03:34:58.916Z,1014.6
2017-09-26T03:35:39.471Z,1014.6
2017-09-26T03:36:19.930Z,1014.6
2017-09-26T03:37:00.454Z,1014.61
2017-09-26T03:37:40.954Z,1014.63
2017-09-26T03:38:21.490Z,1014.59
2017-09-26T03:39:02.001Z,1014.58
2017-09-26T03:39:42.500Z,1014.6
2017-09-26T03:40:23.013Z,1014.61
2017-09-26T03:41:03.527Z,1014.61
2017-09-26T03:41:44.043Z,1014.59
2017-09-26T03:42:24.556Z,1014.6
2017-09-26T03:43:05.052Z,1014.61
2017-09-26T03:43:45.541Z,1014.6
2017-09-26T03:44:26.060Z,1014.63
2017-09-26T03:45:06.577Z,1014.66
2017-09-26T03:45:47.085Z,1014.65
2017-09-26T03:46:27.588Z,1014.63
2017-09-26T03:47:08.089Z,1014.63
2017-09-26T03:47:48.669Z,1014.66
2017-09-26T03:48:29.112Z,1014.66
2017-09-26T03:49:09.630Z,1014.65
2017-09-26T03:49:50.132Z,1014.65
2017-09-26T03:50:30.619Z,1014.69
2017-09-26T03:51:11.147Z,1014.73
2017-09-26T03:51:51.642Z,1014.7
2017-09-26T03:52:32.135Z,1014.73
2017-09-26T03:53:12.646Z,1014.69
2017-09-26T03:53:53.173Z,1014.72
2017-09-26T03:54:33.681Z,1014.73
2017-09-26T03:55:14.186Z,1014.74
2017-09-26T03:55:54.660Z,1014.71
2017-09-26T03:56:35.168Z,1014.76
2017-09-26T03:57:15.674Z,1014.7
2017-09-26T03:57:56.172Z,1014.73
2017-09-26T03:58:36.708Z,1014.7
2017-09-26T03:59:17.202Z,1014.73
2017-09-26T03:59:57.760Z,1014.75
2017-09-26T04:00:38.272Z,1014.68
2017-09-26T04:01:18.781Z,1014.7
2017-09-26T04:01:59.324Z,1014.67
2017-09-26T04:02:39.906Z,1014.7
2017-09-26T04:03:20.613Z,1014.74
2017-09-26T04:04:01.067Z,1014.72
2017-09-26T04:04:41.576Z,1014.73
2017-09-26T04:05:22.058Z,1014.73
2017-09-26T04:06:02.933Z,1014.73
2017-09-26T04:06:43.427Z,1014.76
2017-09-26T04:07:23.981Z,1014.74
2017-09-26T04:08:04.433Z,1014.76
2017-09-26T04:08:45.052Z,1014.8
2017-09-26T04:09:25.610Z,1014.79
2017-09-26T04:10:06.152Z,1014.8
2017-09-26T04:10:46.696Z,1014.78
2017-09-26T04:11:27.235Z,1014.82
2017-09-26T04:12:07.776Z,1014.79
2017-09-26T04:12:48.311Z,1014.79
2017-09-26T04:13:28.832Z,1014.82
2017-09-26T04:14:09.371Z,1014.82
2017-09-26T04:14:49.920Z,1014.81
2017-09-26T04:15:30.457Z,1014.81
2017-09-26T04:16:10.995Z,1014.8
2017-09-26T04:16:51.529Z,1014.79
2017-09-26T04:17:32.080Z,1014.81
2017-09-26T04:18:12.570Z,1014.81
2017-09-26T04:18:53.101Z,1014.82
2017-09-26T04:19:35.305Z,1014.85
2017-09-26T04:20:15.822Z,1014.85
2017-09-26T04:20:56.354Z,1014.84
2017-09-26T04:21:36.933Z,1014.85
2017-09-26T04:22:17.445Z,1014.86
2017-09-26T04:22:58.031Z,1014.88
2017-09-26T04:23:38.541Z,1014.86
2017-09-26T04:24:19.050Z,1014.9
2017-09-26T04:24:59.568Z,1014.91
2017-09-26T04:25:40.089Z,1014.86
2017-09-26T04:26:20.612Z,1014.9
2017-09-26T04:27:01.133Z,1014.87
2017-09-26T04:27:41.666Z,1014.87
2017-09-26T04:28:22.156Z,1014.89
2017-09-26T04:29:02.686Z,1014.86
2017-09-26T04:29:43.205Z,1014.87
2017-09-26T04:30:23.871Z,1014.87
2017-09-26T04:31:04.286Z,1014.87
2017-09-26T04:31:44.788Z,1014.87
2017-09-26T04:32:25.277Z,1014.87
2017-09-26T04:33:05.808Z,1014.9
2017-09-26T04:33:46.389Z,1014.88
2017-09-26T04:34:27.659Z,1014.88
2017-09-26T04:35:08.177Z,1014.92
2017-09-26T04:35:48.749Z,1014.88
2017-09-26T04:36:29.273Z,1014.89
2017-09-26T04:37:09.799Z,1014.89
2017-09-26T04:37:50.329Z,1014.89
2017-09-26T04:38:31.446Z,1014.89
2017-09-26T04:39:12.007Z,1014.87
2017-09-26T04:39:52.544Z,1014.91
2017-09-26T04:40:33.094Z,1014.84
2017-09-26T04:41:14.173Z,1014.88
2017-09-26T04:41:56.441Z,1014.85
2017-09-26T04:42:38.315Z,1014.87
2017-09-26T04:43:20.576Z,1014.87
2017-09-26T04:44:03.061Z,1014.85
2017-09-26T04:44:43.956Z,1014.84
2017-09-26T04:45:24.424Z,1014.86
2017-09-26T04:46:04.974Z,1014.89
2017-09-26T04:46:45.518Z,1014.88
2017-09-26T04:47:26.055Z,1014.86
2017-09-26T04:48:06.566Z,1014.87
2017-09-26T04:48:47.102Z,1014.89
2017-09-26T04:49:27.641Z,1014.87
2017-09-26T04:50:08.192Z,1014.9
2017-09-26T04:50:48.717Z,1014.85
2017-09-26T04:51:29.245Z,1014.89
2017-09-26T04:52:09.822Z,1014.85
2017-09-26T04:52:50.362Z,1014.87
2017-09-26T04:53:30.907Z,1014.83
2017-09-26T04:54:11.440Z,1014.87
2017-09-26T04:54:51.956Z,1014.87
2017-09-26T04:55:32.480Z,1014.85
2017-09-26T04:56:13.014Z,1014.87
2017-09-26T04:56:53.532Z,1014.87
2017-09-26T04:57:34.068Z,1014.85
2017-09-26T04:58:14.608Z,1014.86
2017-09-26T04:58:55.139Z,1014.85
2017-09-26T04:59:35.671Z,1014.84
2017-09-26T05:00:16.207Z,1014.85
2017-09-26T05:00:56.742Z,1014.82
2017-09-26T05:01:37.280Z,1014.83
2017-09-26T05:02:17.818Z,1014.84
2017-09-26T05:02:58.354Z,1014.83
2017-09-26T05:03:38.896Z,1014.83
2017-09-26T05:04:19.407Z,1014.82
2017-09-26T05:04:59.927Z,1014.81
2017-09-26T05:05:40.435Z,1014.83
2017-09-26T05:06:20.940Z,1014.82
2017-09-26T05:07:01.440Z,1014.83
2017-09-26T05:07:41.931Z,1014.83
2017-09-26T05:08:22.453Z,1014.82
2017-09-26T05:09:02.932Z,1014.84
2017-09-26T05:09:43.528Z,1014.85
2017-09-26T05:10:24.092Z,1014.85
2017-09-26T05:11:04.603Z,1014.83
2017-09-26T05:11:45.159Z,1014.84
2017-09-26T05:12:25.688Z,1014.85
2017-09-26T05:13:06.161Z,1014.85
2017-09-26T05:13:46.684Z,1014.82
2017-09-26T05:14:27.218Z,1014.87
2017-09-26T05:15:07.750Z,1014.85
2017-09-26T05:15:48.286Z,1014.85
2017-09-26T05:16:28.828Z,1014.85
2017-09-26T05:17:09.352Z,1014.85
2017-09-26T05:17:49.890Z,1014.82
2017-09-26T05:18:30.398Z,1014.84
2017-09-26T05:19:10.894Z,1014.82
2017-09-26T05:19:51.386Z,1014.86
2017-09-26T05:20:31.879Z,1014.86
2017-09-26T05:21:12.370Z,1014.86
2017-09-26T05:21:52.871Z,1014.87
2017-09-26T05:22:33.398Z,1014.87
2017-09-26T05:23:13.891Z,1014.89
2017-09-26T05:23:54.386Z,1014.86
2017-09-26T05:24:34.887Z,1014.89
2017-09-26T05:25:15.392Z,1014.85
2017-09-26T05:25:55.866Z,1014.89
2017-09-26T05:26:36.354Z,1014.89
2017-09-26T05:27:16.843Z,1014.9
2017-09-26T05:27:57.362Z,1014.88
2017-09-26T05:28:37.894Z,1014.91
2017-09-26T05:29:18.490Z,1014.91
2017-09-26T05:29:58.938Z,1014.93
2017-09-26T05:30:39.448Z,1014.92
2017-09-26T05:31:19.947Z,1014.94
2017-09-26T05:32:00.454Z,1014.93
2017-09-26T05:32:40.979Z,1014.9
2017-09-26T05:33:21.513Z,1014.98
2017-09-26T05:34:02.055Z,1014.96
2017-09-26T05:34:42.596Z,1014.92
2017-09-26T05:35:23.130Z,1014.95
2017-09-26T05:36:03.803Z,1014.98
2017-09-26T05:36:44.294Z,1014.95
2017-09-26T05:37:24.801Z,1014.99
2017-09-26T05:38:05.323Z,1014.99
2017-09-26T05:38:46.026Z,1014.96
2017-09-26T05:39:26.637Z,1014.97
2017-09-26T05:40:07.193Z,1014.97
2017-09-26T05:40:47.702Z,1014.98
2017-09-26T05:41:28.245Z,1014.97
2017-09-26T05:42:08.767Z,1014.96
2017-09-26T05:42:49.327Z,1014.99
2017-09-26T05:43:29.862Z,1014.99
2017-09-26T05:44:10.375Z,1015.03
2017-09-26T05:44:50.893Z,1014.99
2017-09-26T05:45:31.404Z,1015.03
2017-09-26T05:46:12.005Z,1015.01
2017-09-26T05:46:52.498Z,1015.04
2017-09-26T05:47:33.002Z,1015.03
2017-09-26T05:48:13.483Z,1015.07
2017-09-26T05:48:53.978Z,1015.09
2017-09-26T05:49:34.499Z,1015.09
2017-09-26T05:50:15.013Z,1015.14
2017-09-26T05:50:55.514Z,1015.1
2017-09-26T05:51:36.022Z,1015.13
2017-09-26T05:52:16.534Z,1015.13
2017-09-26T05:52:57.066Z,1015.09
2017-09-26T05:53:37.654Z,1015.13
2017-09-26T05:54:18.170Z,1015.16
2017-09-26T05:54:58.726Z,1015.12
2017-09-26T05:55:39.256Z,1015.13
2017-09-26T05:56:19.773Z,1015.15
2017-09-26T05:57:00.261Z,1015.12
2017-09-26T05:57:40.760Z,1015.14
2017-09-26T05:58:21.269Z,1015.1
2017-09-26T05:59:01.811Z,1015.1
2017-09-26T05:59:42.372Z,1015.11
2017-09-26T06:00:22.893Z,1015.13
2017-09-26T06:01:03.547Z,1015.1
2017-09-26T06:01:44.103Z,1015.13
2017-09-26T06:02:24.655Z,1015.09
2017-09-26T06:03:05.189Z,1015.12
2017-09-26T06:03:45.773Z,1015.17
2017-09-26T06:04:26.267Z,1015.15
2017-09-26T06:05:06.814Z,1015.16
2017-09-26T06:05:47.282Z,1015.17
2017-09-26T06:06:27.788Z,1015.2
2017-09-26T06:07:08.289Z,1015.17
2017-09-26T06:07:48.779Z,1015.19
2017-09-26T06:08:29.268Z,1015.2
2017-09-26T06:09:09.769Z,1015.22
2017-09-26T06:09:50.290Z,1015.22
2017-09-26T06:10:30.828Z,1015.21
2017-09-26T06:11:11.435Z,1015.18
2017-09-26T06:11:51.940Z,1015.24
2017-09-26T06:12:32.390Z,1015.22
2017-09-26T06:13:12.910Z,1015.21
2017-09-26T06:13:53.460Z,1015.23
2017-09-26T06:14:33.941Z,1015.26
2017-09-26T06:15:14.450Z,1015.24
2017-09-26T06:15:54.981Z,1015.24
2017-09-26T06:16:35.516Z,1015.24
2017-09-26T06:17:16.109Z,1015.23
2017-09-26T06:17:56.659Z,1015.27
2017-09-26T06:18:37.172Z,1015.25
2017-09-26T06:19:17.679Z,1015.23
2017-09-26T06:19:58.272Z,1015.23
2017-09-26T06:20:38.830Z,1015.23
2017-09-26T06:21:19.373Z,1015.25
2017-09-26T06:21:59.869Z,1015.27
2017-09-26T06:22:40.357Z,1015.27
2017-09-26T06:23:20.837Z,1015.25
2017-09-26T06:24:01.340Z,1015.28
2017-09-26T06:24:41.858Z,1015.29
2017-09-26T06:25:22.368Z,1015.31
2017-09-26T06:26:02.896Z,1015.29
2017-09-26T06:26:43.385Z,1015.3
2017-09-26T06:27:23.883Z,1015.29
2017-09-26T06:28:04.427Z,1015.3
2017-09-26T06:28:44.919Z,1015.3
2017-09-26T06:29:25.426Z,1015.3
2017-09-26T06:30:05.927Z,1015.3
2017-09-26T06:30:46.452Z,1015.32
2017-09-26T06:31:26.952Z,1015.32
2017-09-26T06:32:07.558Z,1015.35
2017-09-26T06:32:48.093Z,1015.33
2017-09-26T06:33:28.629Z,1015.31
2017-09-26T06:34:09.150Z,1015.31
2017-09-26T06:34:49.693Z,1015.32
2017-09-26T06:35:30.228Z,1015.33
2017-09-26T06:36:10.754Z,1015.33
2017-09-26T06:36:51.253Z,1015.3
2017-09-26T06:37:31.728Z,1015.28
2017-09-26T06:38:12.260Z,1015.35
2017-09-26T06:38:52.737Z,1015.29
2017-09-26T06:39:33.226Z,1015.31
2017-09-26T06:40:13.718Z,1015.32
2017-09-26T06:40:54.217Z,1015.31
2017-09-26T06:41:34.743Z,1015.32
2017-09-26T06:42:15.309Z,1015.28
2017-09-26T06:42:55.906Z,1015.33
2017-09-26T06:43:36.434Z,1015.31
2017-09-26T06:44:16.959Z,1015.34
2017-09-26T06:44:57.481Z,1015.35
2017-09-26T06:45:38.003Z,1015.38
2017-09-26T06:46:18.584Z,1015.33
2017-09-26T06:46:59.066Z,1015.34
2017-09-26T06:47:39.561Z,1015.37
2017-09-26T06:48:20.158Z,1015.37
2017-09-26T06:49:00.683Z,1015.39
2017-09-26T06:49:41.195Z,1015.39
2017-09-26T06:50:21.730Z,1015.39
2017-09-26T06:51:02.257Z,1015.4
2017-09-26T06:51:42.777Z,1015.43
2017-09-26T06:52:23.322Z,1015.42
2017-09-26T06:53:03.878Z,1015.42
2017-09-26T06:53:44.339Z,1015.42
2017-09-26T06:54:24.859Z,1015.42
2017-09-26T06:55:05.370Z,1015.38
2017-09-26T06:55:45.880Z,1015.37
2017-09-26T06:56:26.421Z,1015.43
2017-09-26T06:57:06.960Z,1015.43
2017-09-26T06:57:47.487Z,1015.42
2017-09-26T06:58:28.052Z,1015.45
2017-09-26T06:59:08.630Z,1015.42
2017-09-26T06:59:49.283Z,1015.4
2017-09-26T07:00:29.841Z,1015.44
2017-09-26T07:01:10.293Z,1015.39
2017-09-26T07:01:50.775Z,1015.42
2017-09-26T07:02:31.302Z,1015.42
2017-09-26T07:03:11.831Z,1015.39
2017-09-26T07:03:52.365Z,1015.47
2017-09-26T07:04:32.905Z,1015.44
2017-09-26T07:05:13.446Z,1015.45
2017-09-26T07:05:53.985Z,1015.44
2017-09-26T07:06:34.620Z,1015.45
2017-09-26T07:07:15.121Z,1015.46
2017-09-26T07:07:55.654Z,1015.48
2017-09-26T07:08:36.185Z,1015.5
2017-09-26T07:09:16.695Z,1015.5
2017-09-26T07:09:57.228Z,1015.54
2017-09-26T07:10:37.752Z,1015.52
2017-09-26T07:11:18.323Z,1015.54
2017-09-26T07:11:58.861Z,1015.54
2017-09-26T07:12:39.402Z,1015.57
2017-09-26T07:13:19.929Z,1015.57
2017-09-26T07:14:00.441Z,1015.57
2017-09-26T07:14:40.966Z,1015.58
2017-09-26T07:15:21.505Z,1015.6
2017-09-26T07:16:02.024Z,1015.56
2017-09-26T07:16:42.540Z,1015.57
2017-09-26T07:17:23.058Z,1015.57
2017-09-26T07:18:03.581Z,1015.57
2017-09-26T07:18:44.115Z,1015.56
2017-09-26T07:19:24.636Z,1015.51
2017-09-26T07:20:05.161Z,1015.49
2017-09-26T07:20:45.692Z,1015.48
2017-09-26T07:21:26.198Z,1015.49
2017-09-26T07:22:06.710Z,1015.51
2017-09-26T07:22:47.221Z,1015.52
2017-09-26T07:23:27.754Z,1015.52
2017-09-26T07:24:08.256Z,1015.53
2017-09-26T07:24:48.870Z,1015.53
2017-09-26T07:25:29.488Z,1015.53
2017-09-26T07:26:10.001Z,1015.56
2017-09-26T07:26:50.529Z,1015.53
2017-09-26T07:27:31.021Z,1015.53
2017-09-26T07:28:11.539Z,1015.52
2017-09-26T07:28:51.981Z,1015.56
2017-09-26T07:29:32.526Z,1015.53
2017-09-26T07:30:13.007Z,1015.5
2017-09-26T07:30:53.559Z,1015.49
2017-09-26T07:31:34.097Z,1015.55
2017-09-26T07:32:14.633Z,1015.53
2017-09-26T07:32:55.195Z,1015.51
2017-09-26T07:33:35.731Z,1015.49
2017-09-26T07:34:16.316Z,1015.49
2017-09-26T07:34:56.863Z,1015.54
2017-09-26T07:35:37.410Z,1015.54
2017-09-26T07:36:17.974Z,1015.53
2017-09-26T07:36:58.429Z,1015.53
2017-09-26T07:37:38.943Z,1015.57
2017-09-26T07:38:19.501Z,1015.57
2017-09-26T07:39:00.016Z,1015.54
2017-09-26T07:39:40.519Z,1015.55
2017-09-26T07:40:21.092Z,1015.55
2017-09-26T07:41:01.592Z,1015.54
2017-09-26T07:41:42.175Z,1015.55
2017-09-26T07:42:22.695Z,1015.54
2017-09-26T07:43:03.237Z,1015.52
2017-09-26T07:43:43.766Z,1015.56
2017-09-26T07:44:24.250Z,1015.54
2017-09-26T07:45:04.777Z,1015.52
2017-09-26T07:45:45.311Z,1015.54
2017-09-26T07:46:25.835Z,1015.56
2017-09-26T07:47:06.371Z,1015.52
2017-09-26T07:47:46.903Z,1015.58
2017-09-26T07:48:27.442Z,1015.54
2017-09-26T07:49:07.968Z,1015.53
2017-09-26T07:49:48.524Z,1015.57
2017-09-26T07:50:29.046Z,1015.55
2017-09-26T07:51:09.588Z,1015.54
2017-09-26T07:51:50.148Z,1015.53
2017-09-26T07:52:30.682Z,1015.59
2017-09-26T07:53:11.236Z,1015.57
2017-09-26T07:53:51.798Z,1015.58
2017-09-26T07:54:32.374Z,1015.6
2017-09-26T07:55:12.909Z,1015.58
2017-09-26T07:55:53.444Z,1015.59
2017-09-26T07:56:34.017Z,1015.62
2017-09-26T07:57:14.543Z,1015.61
2017-09-26T07:57:55.087Z,1015.62
2017-09-26T07:58:35.613Z,1015.61
2017-09-26T07:59:16.153Z,1015.6
2017-09-26T07:59:56.684Z,1015.59
2017-09-26T08:00:37.221Z,1015.61
2017-09-26T08:01:17.760Z,1015.61
2017-09-26T08:01:58.329Z,1015.61
2017-09-26T08:02:38.859Z,1015.61
2017-09-26T08:03:19.402Z,1015.59
2017-09-26T08:04:00.002Z,1015.57
2017-09-26T08:04:40.514Z,1015.55
2017-09-26T08:05:21.044Z,1015.56
2017-09-26T08:06:01.586Z,1015.58
2017-09-26T08:06:42.090Z,1015.57
2017-09-26T08:07:22.612Z,1015.53
2017-09-26T08:08:03.145Z,1015.52
2017-09-26T08:08:43.675Z,1015.54
2017-09-26T08:09:24.188Z,1015.57
2017-09-26T08:10:04.745Z,1015.59
2017-09-26T08:10:45.233Z,1015.57
2017-09-26T08:11:25.761Z,1015.58